createdAt,value
2023-02-11T00:02:23.734Z,-1.38
2023-02-11T00:05:01.537Z,-1.34
2023-02-11T00:07:37.492Z,-1.46
2023-02-11T00:10:12.035Z,-1.41
2023-02-11T00:12:46.256Z,-1.50
2023-02-11T00:15:21.293Z,-1.39
2023-02-11T00:17:55.522Z,-1.29
2023-02-11T00:20:31.602Z,-1.22
2023-02-11T00:23:05.906Z,-1.14
2023-02-11T00:25:41.634Z,-1.09
2023-02-11T00:28:15.949Z,-1.21
2023-02-11T00:30:55.999Z,-1.14
2023-02-11T00:33:30.330Z,-1.18
2023-02-11T00:36:08.852Z,-1.12
2023-02-11T00:38:45.230Z,-1.08
2023-02-11T00:41:20.998Z,-1.05
2023-02-11T00:43:55.172Z,-1.13
2023-02-11T00:46:29.948Z,-1.09
2023-02-11T00:49:04.359Z,-1.22
2023-02-11T00:51:40.485Z,-1.12
2023-02-11T00:54:14.736Z,-1.15
2023-02-11T00:56:49.335Z,-1.04
2023-02-11T00:59:24.463Z,-1.17
2023-02-11T01:01:59.057Z,-1.50
2023-02-11T01:04:33.449Z,-1.65
2023-02-11T01:07:09.660Z,-1.50
2023-02-11T01:09:43.974Z,-1.39
2023-02-11T01:12:18.878Z,-1.32
2023-02-11T01:14:53.024Z,-1.30
2023-02-11T01:17:27.577Z,-1.31
2023-02-11T01:20:05.043Z,-1.34
2023-02-11T01:22:41.311Z,-1.26
2023-02-11T01:25:15.611Z,-1.35
2023-02-11T01:27:50.275Z,-1.43
2023-02-11T01:30:24.661Z,-1.34
2023-02-11T01:32:59.234Z,-1.33
2023-02-11T01:35:33.498Z,-1.47
2023-02-11T01:38:15.530Z,-1.54
2023-02-11T01:40:51.428Z,-1.68
2023-02-11T01:43:27.341Z,-1.80
2023-02-11T01:46:06.773Z,-1.94
2023-02-11T01:48:45.092Z,-1.89
2023-02-11T01:51:23.942Z,-1.92
2023-02-11T01:54:18.380Z,-1.84
2023-02-11T01:57:13.853Z,-1.90
2023-02-11T01:59:55.669Z,-1.79
2023-02-11T02:02:35.705Z,-1.62
2023-02-11T02:05:18.897Z,-1.72
2023-02-11T02:08:02.038Z,-1.85
2023-02-11T02:10:44.473Z,-1.98
2023-02-11T02:13:18.741Z,-2.08
2023-02-11T02:15:55.002Z,-2.13
2023-02-11T02:18:41.073Z,-2.07
2023-02-11T02:21:54.601Z,-1.96
2023-02-11T02:24:58.171Z,-1.96
2023-02-11T02:27:55.181Z,-2.02
2023-02-11T02:30:53.056Z,-2.14
2023-02-11T02:33:52.549Z,-1.98
2023-02-11T02:36:36.398Z,-1.95
2023-02-11T02:39:16.049Z,-1.96
2023-02-11T02:41:52.957Z,-1.90
2023-02-11T02:44:27.633Z,-2.06
2023-02-11T02:47:02.231Z,-2.17
2023-02-11T02:49:38.375Z,-2.20
2023-02-11T02:52:27.416Z,-1.95
2023-02-11T02:55:26.197Z,-2.10
2023-02-11T02:58:42.857Z,-1.97
2023-02-11T03:01:27.796Z,-1.88
2023-02-11T03:04:13.454Z,-2.11
2023-02-11T03:06:55.119Z,-1.94
2023-02-11T03:09:33.854Z,-2.00
2023-02-11T03:12:10.685Z,-2.04
2023-02-11T03:14:46.589Z,-2.16
2023-02-11T03:17:22.581Z,-2.14
2023-02-11T03:19:59.299Z,-2.12
2023-02-11T03:22:41.545Z,-2.01
2023-02-11T03:25:16.569Z,-2.01
2023-02-11T03:27:57.349Z,-2.17
2023-02-11T03:30:37.184Z,-2.19
2023-02-11T03:33:20.072Z,-2.37
2023-02-11T03:35:58.278Z,-2.32
2023-02-11T03:38:38.767Z,-2.26
2023-02-11T03:41:16.307Z,-2.24
2023-02-11T03:43:53.548Z,-2.15
2023-02-11T03:46:32.658Z,-2.20
2023-02-11T03:49:11.445Z,-2.19
2023-02-11T03:51:46.384Z,-2.18
2023-02-11T03:54:31.526Z,-2.13
2023-02-11T03:57:06.127Z,-2.05
2023-02-11T03:59:55.689Z,-1.96
2023-02-11T04:02:32.786Z,-1.89
2023-02-11T04:05:09.256Z,-1.99
2023-02-11T04:07:43.695Z,-1.99
2023-02-11T04:10:20.030Z,-2.09
2023-02-11T04:12:54.604Z,-2.05
2023-02-11T04:15:30.282Z,-1.98
2023-02-11T04:18:04.751Z,-1.78
2023-02-11T04:20:39.296Z,-2.14
2023-02-11T04:23:13.529Z,-2.28
2023-02-11T04:25:50.761Z,-2.66
2023-02-11T04:28:26.877Z,-2.63
2023-02-11T04:31:01.596Z,-2.66
2023-02-11T04:33:35.834Z,-2.47
2023-02-11T04:36:10.500Z,-2.29
2023-02-11T04:38:44.760Z,-2.36
2023-02-11T04:41:21.026Z,-2.31
2023-02-11T04:43:55.246Z,-2.21
2023-02-11T04:46:30.093Z,-2.50
2023-02-11T04:49:05.067Z,-2.51
2023-02-11T04:51:39.825Z,-2.79
2023-02-11T04:54:15.004Z,-3.01
2023-02-11T04:56:51.246Z,-3.14
2023-02-11T04:59:25.890Z,-2.93
2023-02-11T05:02:00.376Z,-3.10
2023-02-11T05:04:35.764Z,-3.07
2023-02-11T05:07:10.568Z,-2.86
2023-02-11T05:09:44.889Z,-2.60
2023-02-11T05:12:20.945Z,-2.95
2023-02-11T05:14:55.225Z,-2.76
2023-02-11T05:17:29.734Z,-3.19
2023-02-11T05:20:04.133Z,-3.25
2023-02-11T05:22:39.049Z,-3.41
2023-02-11T05:25:13.281Z,-3.46
2023-02-11T05:27:49.193Z,-3.54
2023-02-11T05:30:23.521Z,-3.59
2023-02-11T05:32:58.320Z,-3.71
2023-02-11T05:35:32.827Z,-3.43
2023-02-11T05:38:08.093Z,-3.41
2023-02-11T05:40:42.668Z,-3.26
2023-02-11T05:43:18.555Z,-3.24
2023-02-11T05:45:53.163Z,-3.54
2023-02-11T05:48:27.982Z,-3.37
2023-02-11T05:51:02.591Z,-3.62
2023-02-11T05:53:37.191Z,-3.61
2023-02-11T05:56:11.736Z,-3.34
2023-02-11T05:58:48.383Z,-3.18
2023-02-11T06:01:22.699Z,-3.20
2023-02-11T06:03:57.657Z,-3.44
2023-02-11T06:06:32.401Z,1.83
2023-02-11T06:09:07.018Z,3.40
2023-02-11T06:11:41.211Z,1.46
2023-02-11T06:14:17.285Z,-0.10
2023-02-11T06:16:51.492Z,-1.82
2023-02-11T06:19:26.099Z,-2.32
2023-02-11T06:22:00.482Z,-2.36
2023-02-11T06:24:58.699Z,-2.67
2023-02-11T06:27:29.360Z,-2.75
2023-02-11T06:30:06.487Z,-2.52
2023-02-11T06:32:45.431Z,-2.38
2023-02-11T06:35:20.832Z,-2.43
2023-02-11T06:37:55.164Z,-2.35
2023-02-11T06:40:29.661Z,-2.41
2023-02-11T06:43:07.388Z,-2.66
2023-02-11T06:45:43.420Z,-2.52
2023-02-11T06:48:18.500Z,3.65
2023-02-11T06:50:53.260Z,1.72
2023-02-11T06:53:27.554Z,-0.03
2023-02-11T06:56:04.722Z,-0.93
2023-02-11T06:58:39.385Z,-1.09
2023-02-11T07:02:54.067Z,4.40
2023-02-11T07:05:28.951Z,4.40
2023-02-11T07:08:03.219Z,2.41
2023-02-11T07:10:37.757Z,-0.13
2023-02-11T07:13:12.056Z,-0.94
2023-02-11T07:15:46.834Z,-1.29
2023-02-11T07:18:22.453Z,-1.32
2023-02-11T07:20:57.001Z,-1.58
2023-02-11T07:23:31.352Z,-1.60
2023-02-11T07:26:06.345Z,-1.75
2023-02-11T07:28:41.982Z,-1.68
2023-02-11T07:31:18.171Z,-1.71
2023-02-11T07:33:59.994Z,-1.62
2023-02-11T07:36:34.525Z,-1.62
2023-02-11T07:39:08.810Z,-1.55
2023-02-11T07:41:44.492Z,2.17
2023-02-11T07:44:19.044Z,2.23
2023-02-11T07:46:53.521Z,0.37
2023-02-11T07:49:29.524Z,-0.03
2023-02-11T07:52:04.134Z,-0.21
2023-02-11T07:54:38.315Z,-0.62
2023-02-11T07:57:12.863Z,-0.67
2023-02-11T07:59:47.238Z,-0.75
2023-02-11T08:02:21.875Z,-0.57
2023-02-11T08:04:57.899Z,-0.34
2023-02-11T08:07:32.456Z,-0.13
2023-02-11T08:10:07.482Z,-0.26
2023-02-11T08:12:41.766Z,4.53
2023-02-11T08:15:17.249Z,3.21
2023-02-11T08:17:51.497Z,1.69
2023-02-11T08:20:27.460Z,0.91
2023-02-11T08:23:02.271Z,0.40
2023-02-11T08:25:36.769Z,0.27
2023-02-11T08:28:11.280Z,0.12
2023-02-11T08:30:46.014Z,0.36
2023-02-11T08:33:20.271Z,0.29
2023-02-11T08:35:56.275Z,0.29
2023-02-11T08:38:30.486Z,3.23
2023-02-11T08:41:05.765Z,2.63
2023-02-11T08:43:41.781Z,2.07
2023-02-11T08:46:19.120Z,1.78
2023-02-11T08:48:53.933Z,1.43
2023-02-11T08:51:31.698Z,1.38
2023-02-11T08:54:09.582Z,1.30
2023-02-11T08:56:44.115Z,1.25
2023-02-11T08:59:18.854Z,1.34
2023-02-11T09:01:53.688Z,1.30
2023-02-11T09:04:28.235Z,1.25
2023-02-11T09:07:04.867Z,1.29
2023-02-11T09:09:39.405Z,1.42
2023-02-11T09:12:14.207Z,1.45
2023-02-11T09:14:48.692Z,1.59
2023-02-11T09:17:23.165Z,1.79
2023-02-11T09:19:57.644Z,1.91
2023-02-11T09:22:33.495Z,1.92
2023-02-11T09:25:08.392Z,2.12
2023-02-11T09:27:42.928Z,2.16
2023-02-11T09:30:17.541Z,2.29
2023-02-11T09:32:52.134Z,2.79
2023-02-11T09:35:27.047Z,2.84
2023-02-11T09:38:03.158Z,3.07
2023-02-11T09:40:37.414Z,3.19
2023-02-11T09:43:19.271Z,3.23
2023-02-11T09:45:57.104Z,3.43
2023-02-11T09:48:42.727Z,3.56
2023-02-11T09:51:25.843Z,3.80
2023-02-11T09:54:06.900Z,3.79
2023-02-11T09:56:41.126Z,4.00
2023-02-11T09:59:17.686Z,4.32
2023-02-11T10:01:55.430Z,6.63
2023-02-11T10:04:46.809Z,8.95
2023-02-11T10:07:32.101Z,7.20
2023-02-11T10:10:19.704Z,6.50
2023-02-11T10:13:08.162Z,6.02
2023-02-11T10:15:50.065Z,5.70
2023-02-11T10:18:41.607Z,5.66
2023-02-11T10:21:29.017Z,5.57
2023-02-11T10:24:07.236Z,5.44
2023-02-11T10:26:44.743Z,5.32
2023-02-11T10:29:32.535Z,5.30
2023-02-11T10:32:28.106Z,5.23
2023-02-11T10:35:05.057Z,5.15
2023-02-11T10:37:39.571Z,4.87
2023-02-11T10:40:19.933Z,4.91
2023-02-11T10:42:59.281Z,4.94
2023-02-11T10:45:36.219Z,4.89
2023-02-11T10:48:39.221Z,4.83
2023-02-11T10:51:22.665Z,4.92
2023-02-11T10:54:14.562Z,5.16
2023-02-11T10:56:52.235Z,5.18
2023-02-11T10:59:31.365Z,5.25
2023-02-11T11:02:19.220Z,6.49
2023-02-11T11:04:58.635Z,6.11
2023-02-11T11:07:35.206Z,5.77
2023-02-11T11:10:29.105Z,5.56
2023-02-11T11:13:03.324Z,5.41
2023-02-11T11:15:39.291Z,5.54
2023-02-11T11:18:22.839Z,5.47
2023-02-11T11:21:00.962Z,5.62
2023-02-11T11:23:38.074Z,5.68
2023-02-11T11:26:15.750Z,5.57
2023-02-11T11:28:57.253Z,5.60
2023-02-11T11:31:36.782Z,5.73
2023-02-11T11:34:23.215Z,5.86
2023-02-11T11:36:59.937Z,6.03
2023-02-11T11:39:36.767Z,6.16
2023-02-11T11:42:27.085Z,6.32
2023-02-11T11:45:03.856Z,5.79
2023-02-11T11:47:46.188Z,5.78
2023-02-11T11:50:28.113Z,5.70
2023-02-11T11:53:08.457Z,5.99
2023-02-11T11:55:46.577Z,6.11
2023-02-11T11:58:24.316Z,6.16
2023-02-11T12:01:09.511Z,6.02
2023-02-11T12:04:12.092Z,5.75
2023-02-11T12:06:56.974Z,5.65
2023-02-11T12:09:41.358Z,5.72
2023-02-11T12:12:35.327Z,5.79
2023-02-11T12:15:23.035Z,5.96
2023-02-11T12:18:14.448Z,5.96
2023-02-11T12:21:15.174Z,6.95
2023-02-11T12:24:02.681Z,7.19
2023-02-11T12:26:46.790Z,7.07
2023-02-11T12:29:32.304Z,7.02
2023-02-11T12:32:20.503Z,7.04
2023-02-11T12:35:23.737Z,6.94
2023-02-11T12:38:32.381Z,6.72
2023-02-11T12:41:46.688Z,6.89
2023-02-11T12:44:32.400Z,6.89
2023-02-11T12:47:20.573Z,6.77
2023-02-11T12:50:10.482Z,6.84
2023-02-11T12:52:57.805Z,7.17
2023-02-11T12:55:38.223Z,7.17
2023-02-11T12:58:18.311Z,6.58
2023-02-11T13:00:55.628Z,6.40
2023-02-11T13:03:33.322Z,6.34
2023-02-11T13:06:12.146Z,6.33
2023-02-11T13:08:49.617Z,6.13
2023-02-11T13:11:29.218Z,6.14
2023-02-11T13:14:07.393Z,6.08
2023-02-11T13:16:46.542Z,6.00
2023-02-11T13:19:28.236Z,5.99
2023-02-11T13:22:09.630Z,6.55
2023-02-11T13:24:48.102Z,6.30
2023-02-11T13:27:34.607Z,6.24
2023-02-11T13:30:28.319Z,6.09
2023-02-11T13:33:19.086Z,6.05
2023-02-11T13:36:18.917Z,6.18
2023-02-11T13:39:03.224Z,6.13
2023-02-11T13:41:41.756Z,6.04
2023-02-11T13:44:27.388Z,6.02
2023-02-11T13:47:04.757Z,5.93
2023-02-11T13:49:42.190Z,5.84
2023-02-11T13:52:25.866Z,5.78
2023-02-11T13:55:08.832Z,5.80
2023-02-11T13:57:43.858Z,5.80
2023-02-11T14:00:51.444Z,5.84
2023-02-11T14:03:47.316Z,5.79
2023-02-11T14:06:42.533Z,5.90
2023-02-11T14:09:47.522Z,5.94
2023-02-11T14:12:37.153Z,6.02
2023-02-11T14:15:28.969Z,6.05
2023-02-11T14:18:25.125Z,5.98
2023-02-11T14:21:13.243Z,5.93
2023-02-11T14:23:48.597Z,5.86
2023-02-11T14:26:36.088Z,5.75
2023-02-11T14:29:18.637Z,5.68
2023-02-11T14:32:04.017Z,5.59
2023-02-11T14:34:52.853Z,5.48
2023-02-11T14:37:39.679Z,6.30
2023-02-11T14:40:24.733Z,7.11
2023-02-11T14:43:08.954Z,7.09
2023-02-11T14:45:46.758Z,6.38
2023-02-11T14:48:24.525Z,5.89
2023-02-11T14:51:04.054Z,5.70
2023-02-11T14:53:42.477Z,5.58
2023-02-11T14:56:22.180Z,5.53
2023-02-11T14:58:57.248Z,5.39
2023-02-11T15:03:33.033Z,5.62
2023-02-11T15:06:15.540Z,5.62
2023-02-11T15:08:53.626Z,5.09
2023-02-11T15:11:32.249Z,5.01
2023-02-11T15:14:11.918Z,5.01
2023-02-11T15:16:48.754Z,5.04
2023-02-11T15:19:33.046Z,5.56
2023-02-11T15:22:20.286Z,5.66
2023-02-11T15:25:04.033Z,5.33
2023-02-11T15:27:43.019Z,5.18
2023-02-11T15:30:34.205Z,5.01
2023-02-11T15:33:23.025Z,4.87
2023-02-11T15:35:59.489Z,4.78
2023-02-11T15:38:34.205Z,4.76
2023-02-11T15:41:09.551Z,4.66
2023-02-11T15:43:46.044Z,4.60
2023-02-11T15:46:23.657Z,4.57
2023-02-11T15:48:58.903Z,4.53
2023-02-11T15:51:37.570Z,4.45
2023-02-11T15:54:20.242Z,4.52
2023-02-11T15:57:00.399Z,4.49
2023-02-11T15:59:38.362Z,4.42
2023-02-11T16:02:19.833Z,4.46
2023-02-11T16:04:57.665Z,4.41
2023-02-11T16:07:45.795Z,4.39
2023-02-11T16:10:24.773Z,4.37
2023-02-11T16:13:18.299Z,4.34
2023-02-11T16:15:55.729Z,4.35
2023-02-11T16:18:38.664Z,4.32
2023-02-11T16:21:17.864Z,4.33
2023-02-11T16:23:56.122Z,4.23
2023-02-11T16:26:33.946Z,4.31
2023-02-11T16:29:15.946Z,4.27
2023-02-11T16:31:51.129Z,4.26
2023-02-11T16:34:27.052Z,4.25
2023-02-11T16:37:05.673Z,4.22
2023-02-11T16:39:41.557Z,4.24
2023-02-11T16:42:16.614Z,4.23
2023-02-11T16:44:51.131Z,4.19
2023-02-11T16:47:27.777Z,4.14
2023-02-11T16:50:04.617Z,4.12
2023-02-11T16:52:39.421Z,4.10
2023-02-11T16:55:15.452Z,4.09
2023-02-11T16:57:50.439Z,4.08
2023-02-11T17:00:25.581Z,4.11
2023-02-11T17:03:00.552Z,4.04
2023-02-11T17:05:49.399Z,3.94
2023-02-11T17:08:30.108Z,3.99
2023-02-11T17:11:06.292Z,3.91
2023-02-11T17:13:42.245Z,3.97
2023-02-11T17:16:22.683Z,4.00
2023-02-11T17:18:57.533Z,4.07
2023-02-11T17:21:32.192Z,4.07
2023-02-11T17:24:07.132Z,4.07
2023-02-11T17:26:43.741Z,4.03
2023-02-11T17:29:22.314Z,3.99
2023-02-11T17:31:57.238Z,4.02
2023-02-11T17:34:32.472Z,3.98
2023-02-11T17:37:09.391Z,3.98
2023-02-11T17:39:44.767Z,3.97
2023-02-11T17:42:20.734Z,3.93
2023-02-11T17:44:55.255Z,3.90
2023-02-11T17:47:29.746Z,3.92
2023-02-11T17:50:05.078Z,3.92
2023-02-11T17:52:39.255Z,3.90
2023-02-11T17:55:14.823Z,3.92
2023-02-11T20:01:11.434Z,5.03
2023-02-11T20:03:50.482Z,5.03
2023-02-11T20:06:26.629Z,4.27
2023-02-11T20:09:03.537Z,4.02
2023-02-11T20:11:38.601Z,3.93
2023-02-11T20:14:14.891Z,3.89
2023-02-11T20:16:50.649Z,3.85
2023-02-11T20:19:25.536Z,3.78
2023-02-11T20:22:00.427Z,3.71
2023-02-11T20:24:35.168Z,3.76
2023-02-11T20:27:11.602Z,3.80
2023-02-11T20:29:46.667Z,3.72
2023-02-11T20:32:22.857Z,3.78
2023-02-11T20:34:57.444Z,3.81
2023-02-11T20:37:32.188Z,3.76
2023-02-11T20:40:08.592Z,3.73
2023-02-11T20:42:51.569Z,3.69
2023-02-11T20:45:26.285Z,7.86
2023-02-11T20:48:02.197Z,5.77
2023-02-11T20:50:37.021Z,5.06
2023-02-11T20:53:12.188Z,4.52
2023-02-11T20:55:46.989Z,4.21
2023-02-11T20:58:21.559Z,4.17
2023-02-11T21:00:56.530Z,4.20
2023-02-11T21:03:32.573Z,4.00
2023-02-11T21:06:08.661Z,4.00
2023-02-11T21:08:43.156Z,3.86
2023-02-11T21:11:18.220Z,3.93
2023-02-11T21:13:52.777Z,3.95
2023-02-11T21:16:28.065Z,3.99
2023-02-11T21:19:07.062Z,3.91
2023-02-11T21:21:42.220Z,3.84
2023-02-11T21:24:16.886Z,4.02
2023-02-11T21:26:51.653Z,3.98
2023-02-11T21:29:25.865Z,4.13
2023-02-11T21:32:00.952Z,4.20
2023-02-11T21:34:37.189Z,4.37
2023-02-11T21:37:12.066Z,4.57
2023-02-11T21:39:46.646Z,4.77
2023-02-11T21:42:21.514Z,4.97
2023-02-11T21:44:55.933Z,5.07
2023-02-11T21:47:30.992Z,5.12
2023-02-11T21:50:07.977Z,5.10
2023-02-11T21:52:42.760Z,5.13
2023-02-11T21:55:17.169Z,6.61
2023-02-11T21:57:51.822Z,8.48
2023-02-11T22:00:26.185Z,8.28
2023-02-11T22:03:01.198Z,7.17
2023-02-11T22:05:36.713Z,6.26
2023-02-11T22:08:11.484Z,5.99
2023-02-11T22:10:45.886Z,5.88
2023-02-11T22:13:20.553Z,5.66
2023-02-11T22:16:02.298Z,5.67
2023-02-11T22:18:37.259Z,5.57
2023-02-11T22:21:14.812Z,5.55
2023-02-11T22:23:49.661Z,5.42
2023-02-11T22:26:25.816Z,5.47
2023-02-11T22:29:00.330Z,5.39
2023-02-11T22:31:35.923Z,5.32
2023-02-11T22:34:11.098Z,5.27
2023-02-11T22:36:47.106Z,5.26
2023-02-11T22:39:21.522Z,5.24
2023-02-11T22:41:56.700Z,5.36
2023-02-11T22:44:31.145Z,5.46
2023-02-11T22:47:05.477Z,5.43
2023-02-11T22:49:41.432Z,5.42
2023-02-11T22:52:17.081Z,5.39
2023-02-11T22:54:52.412Z,5.43
2023-02-11T22:57:26.682Z,5.42
2023-02-11T23:00:01.178Z,5.33
2023-02-11T23:02:54.777Z,5.77
2023-02-11T23:05:29.773Z,5.77
2023-02-11T23:08:04.243Z,5.30
2023-02-11T23:10:40.168Z,5.22
2023-02-11T23:13:14.552Z,5.31
2023-02-11T23:15:49.185Z,5.34
2023-02-11T23:18:24.742Z,5.33
2023-02-11T23:21:04.483Z,5.40
2023-02-11T23:23:38.782Z,5.39
2023-02-11T23:26:15.514Z,5.33
2023-02-11T23:28:49.777Z,5.39
2023-02-11T23:31:27.068Z,5.41
2023-02-11T23:34:03.351Z,5.39
2023-02-11T23:36:38.774Z,5.41
2023-02-11T23:39:17.041Z,5.46
2023-02-11T23:41:53.301Z,5.46
2023-02-11T23:44:27.708Z,5.42
2023-02-11T23:47:02.261Z,5.40
2023-02-11T23:49:37.849Z,5.35
2023-02-11T23:52:12.378Z,5.36
2023-02-11T23:54:48.317Z,5.37
2023-02-11T23:57:22.826Z,5.36
2023-02-11T23:59:57.057Z,5.29
